createdAt,value
2022-10-24T00:01:06.253Z,28.50
2022-10-24T00:03:32.909Z,29.02
2022-10-24T00:05:59.215Z,29.35
2022-10-24T00:08:25.631Z,27.63
2022-10-24T00:10:51.908Z,27.55
2022-10-24T00:13:18.324Z,27.80
2022-10-24T00:15:44.597Z,28.20
2022-10-24T00:18:10.981Z,28.13
2022-10-24T00:20:37.276Z,28.73
2022-10-24T00:23:03.539Z,27.92
2022-10-24T00:25:29.869Z,26.42
2022-10-24T00:27:56.373Z,27.55
2022-10-24T00:30:22.666Z,26.98
2022-10-24T00:32:49.089Z,26.77
2022-10-24T00:35:15.385Z,26.08
2022-10-24T00:37:41.889Z,26.38
2022-10-24T00:40:08.208Z,25.38
2022-10-24T00:42:34.644Z,25.85
2022-10-24T00:45:01.036Z,24.55
2022-10-24T00:47:27.471Z,25.38
2022-10-24T00:49:53.766Z,25.05
2022-10-24T00:52:20.005Z,24.70
2022-10-24T00:54:46.658Z,24.58
2022-10-24T00:57:12.940Z,24.48
2022-10-24T00:59:39.218Z,24.10
2022-10-24T01:02:05.700Z,23.55
2022-10-24T01:04:32.480Z,24.45
2022-10-24T01:06:58.796Z,23.33
2022-10-24T01:09:25.122Z,24.20
2022-10-24T01:11:51.498Z,22.40
2022-10-24T01:14:19.319Z,23.73
2022-10-24T01:16:45.681Z,22.83
2022-10-24T01:19:13.179Z,22.95
2022-10-24T01:21:39.552Z,23.30
2022-10-24T01:24:05.879Z,22.90
2022-10-24T01:26:32.277Z,23.17
2022-10-24T01:28:58.550Z,21.98
2022-10-24T01:31:25.044Z,22.17
2022-10-24T01:33:51.304Z,22.83
2022-10-24T01:36:17.547Z,22.30
2022-10-24T01:38:43.798Z,21.00
2022-10-24T01:41:10.490Z,21.60
2022-10-24T01:43:36.918Z,21.55
2022-10-24T01:46:03.320Z,21.80
2022-10-24T01:48:29.651Z,21.27
2022-10-24T01:50:55.936Z,21.27
2022-10-24T01:53:24.804Z,20.35
2022-10-24T01:55:51.661Z,21.23
2022-10-24T01:58:18.072Z,20.48
2022-10-24T02:00:44.728Z,20.58
2022-10-24T02:03:11.075Z,21.05
2022-10-24T02:05:37.463Z,20.30
2022-10-24T02:08:03.767Z,19.75
2022-10-24T02:10:30.052Z,19.67
2022-10-24T02:12:56.458Z,20.10
2022-10-24T02:15:22.767Z,19.95
2022-10-24T02:17:49.052Z,20.20
2022-10-24T02:20:15.584Z,19.83
2022-10-24T02:22:42.581Z,19.05
2022-10-24T02:25:08.910Z,19.60
2022-10-24T02:27:35.267Z,19.70
2022-10-24T02:30:01.649Z,17.73
2022-10-24T02:32:28.239Z,18.95
2022-10-24T02:34:54.533Z,19.25
2022-10-24T02:37:20.993Z,18.85
2022-10-24T02:39:47.301Z,18.70
2022-10-24T02:42:13.682Z,18.35
2022-10-24T02:44:39.923Z,18.20
2022-10-24T02:47:06.161Z,16.75
2022-10-24T02:49:32.421Z,17.85
2022-10-24T02:51:58.955Z,17.83
2022-10-24T02:54:25.897Z,17.98
2022-10-24T02:56:52.198Z,18.48
2022-10-24T02:59:18.542Z,17.40
2022-10-24T03:01:44.952Z,17.63
2022-10-24T03:04:11.322Z,16.77
2022-10-24T03:06:38.307Z,17.33
2022-10-24T03:09:04.606Z,18.80
2022-10-24T03:11:31.889Z,17.25
2022-10-24T03:13:58.167Z,17.08
2022-10-24T03:16:24.480Z,17.50
2022-10-24T03:18:50.909Z,17.13
2022-10-24T03:21:17.392Z,17.65
2022-10-24T03:23:43.676Z,16.60
2022-10-24T03:26:09.947Z,16.63
2022-10-24T03:28:36.386Z,16.02
2022-10-24T03:31:02.917Z,17.40
2022-10-24T03:33:29.306Z,16.35
2022-10-24T03:35:55.646Z,15.85
2022-10-24T03:38:22.104Z,16.35
2022-10-24T03:40:48.433Z,16.98
2022-10-24T03:43:14.817Z,16.02
2022-10-24T03:45:41.164Z,14.55
2022-10-24T03:48:07.684Z,15.73
2022-10-24T03:50:34.019Z,15.13
2022-10-24T03:53:00.451Z,16.30
2022-10-24T03:55:26.840Z,16.52
2022-10-24T03:57:53.133Z,15.68
2022-10-24T04:00:19.471Z,15.20
2022-10-24T04:02:45.816Z,15.60
2022-10-24T04:05:13.682Z,15.30
2022-10-24T04:07:39.939Z,15.75
2022-10-24T04:10:06.152Z,14.68
2022-10-24T04:12:32.561Z,14.70
2022-10-24T04:15:02.436Z,15.85
2022-10-24T04:17:31.956Z,14.77
2022-10-24T04:19:58.279Z,15.25
2022-10-24T04:22:24.524Z,14.18
2022-10-24T04:24:50.803Z,15.32
2022-10-24T04:27:17.097Z,15.02
2022-10-24T04:29:43.734Z,14.45
2022-10-24T04:32:10.125Z,15.60
2022-10-24T04:34:36.514Z,15.50
2022-10-24T04:37:02.780Z,14.63
2022-10-24T04:39:29.204Z,14.98
2022-10-24T04:41:55.726Z,15.45
2022-10-24T04:44:22.145Z,13.75
2022-10-24T04:46:50.715Z,14.15
2022-10-24T04:49:18.666Z,13.85
2022-10-24T04:51:45.251Z,13.65
2022-10-24T04:54:11.875Z,13.43
2022-10-24T04:56:38.295Z,14.02
2022-10-24T04:59:04.598Z,12.90
2022-10-24T05:01:30.934Z,14.95
2022-10-24T05:03:57.445Z,13.55
2022-10-24T05:06:23.749Z,14.80
2022-10-24T05:08:50.107Z,14.23
2022-10-24T05:11:16.723Z,13.68
2022-10-24T05:13:43.264Z,14.82
2022-10-24T05:16:10.055Z,15.30
2022-10-24T05:18:36.371Z,13.45
2022-10-24T05:21:02.679Z,13.02
2022-10-24T05:23:28.989Z,13.45
2022-10-24T05:25:55.517Z,14.30
2022-10-24T05:28:21.822Z,13.27
2022-10-24T05:30:48.161Z,13.95
2022-10-24T05:33:14.489Z,14.32
2022-10-24T05:35:40.845Z,13.43
2022-10-24T05:38:07.273Z,13.18
2022-10-24T05:40:33.833Z,12.68
2022-10-24T05:43:00.307Z,12.57
2022-10-24T05:45:27.449Z,13.20
2022-10-24T05:47:53.800Z,12.50
2022-10-24T05:50:20.152Z,11.93
2022-10-24T05:52:47.275Z,13.05
2022-10-24T05:55:16.948Z,12.13
2022-10-24T06:00:17.568Z,11.95
2022-10-24T06:02:43.984Z,12.73
2022-10-24T06:05:10.378Z,12.00
2022-10-24T06:07:36.589Z,12.90
2022-10-24T06:10:03.066Z,11.63
2022-10-24T06:12:29.473Z,14.27
2022-10-24T06:14:56.049Z,12.10
2022-10-24T06:17:22.549Z,10.98
2022-10-24T06:22:20.358Z,11.38
2022-10-24T06:24:46.905Z,11.23
2022-10-24T06:27:13.588Z,12.55
2022-10-24T06:29:40.207Z,11.25
2022-10-24T06:32:06.658Z,12.25
2022-10-24T06:34:33.007Z,12.77
2022-10-24T06:36:59.273Z,11.55
2022-10-24T06:39:25.821Z,11.60
2022-10-24T06:41:52.147Z,11.82
2022-10-24T06:44:18.494Z,11.48
2022-10-24T06:46:44.764Z,13.15
2022-10-24T06:49:11.436Z,11.50
2022-10-24T06:51:37.735Z,11.38
2022-10-24T06:56:43.932Z,10.90
2022-10-24T06:59:11.140Z,11.27
2022-10-24T07:01:37.747Z,12.10
2022-10-24T07:04:04.056Z,11.15
2022-10-24T07:06:30.404Z,11.40
2022-10-24T07:08:56.670Z,12.18
2022-10-24T07:11:23.072Z,13.93
2022-10-24T07:13:49.454Z,13.70
2022-10-24T07:16:15.966Z,13.02
2022-10-24T07:18:42.326Z,13.32
2022-10-24T07:21:08.732Z,10.90
2022-10-24T07:23:35.018Z,12.20
2022-10-24T07:26:01.336Z,11.23
2022-10-24T07:28:27.735Z,11.95
2022-10-24T07:30:54.026Z,11.25
2022-10-24T07:33:20.328Z,10.93
2022-10-24T07:35:46.739Z,12.38
2022-10-24T07:38:16.442Z,12.25
2022-10-24T07:40:44.885Z,12.57
2022-10-24T07:43:11.225Z,11.65
2022-10-24T07:45:37.685Z,11.90
2022-10-24T07:48:04.267Z,11.55
2022-10-24T07:50:30.624Z,12.65
2022-10-24T07:52:56.956Z,11.68
2022-10-24T07:55:23.214Z,11.10
2022-10-24T07:57:49.782Z,10.40
2022-10-24T08:00:16.622Z,11.63
2022-10-24T08:02:43.099Z,11.02
2022-10-24T08:05:09.601Z,11.98
2022-10-24T08:07:35.909Z,12.05
2022-10-24T08:10:02.351Z,13.75
2022-10-24T08:12:28.725Z,10.70
2022-10-24T08:14:55.068Z,10.80
2022-10-24T08:17:22.135Z,10.95
2022-10-24T08:19:48.713Z,11.40
2022-10-24T08:22:15.271Z,12.77
2022-10-24T08:24:41.665Z,12.93
2022-10-24T08:27:08.155Z,11.48
2022-10-24T08:29:34.466Z,12.05
2022-10-24T08:32:00.765Z,12.15
2022-10-24T08:34:27.167Z,10.55
2022-10-24T08:36:53.589Z,10.93
2022-10-24T08:39:19.919Z,10.23
2022-10-24T08:41:46.435Z,11.82
2022-10-24T08:44:12.777Z,12.05
2022-10-24T08:46:39.525Z,10.40
2022-10-24T08:49:06.006Z,12.35
2022-10-24T08:51:32.368Z,10.35
2022-10-24T08:53:58.722Z,9.98
2022-10-24T08:56:25.011Z,11.25
2022-10-24T08:58:51.558Z,11.07
2022-10-24T09:01:18.072Z,13.45
2022-10-24T09:03:55.503Z,10.43
2022-10-24T09:06:22.701Z,11.93
2022-10-24T09:08:49.395Z,9.95
2022-10-24T09:11:15.895Z,9.68
2022-10-24T09:13:42.508Z,11.05
2022-10-24T09:16:08.793Z,10.38
2022-10-24T09:18:35.257Z,11.18
2022-10-24T09:21:01.651Z,9.45
2022-10-24T09:23:28.363Z,11.27
2022-10-24T09:25:54.693Z,10.75
2022-10-24T09:28:21.234Z,10.73
2022-10-24T09:30:47.737Z,10.57
2022-10-24T09:33:14.133Z,9.63
2022-10-24T09:38:21.038Z,9.38
2022-10-24T09:40:47.499Z,10.18
2022-10-24T09:43:13.789Z,8.38
2022-10-24T09:45:40.264Z,9.32
2022-10-24T09:48:06.900Z,10.77
2022-10-24T09:50:33.243Z,9.68
2022-10-24T09:52:59.770Z,11.90
2022-10-24T09:55:26.291Z,9.15
2022-10-24T09:57:52.630Z,9.43
2022-10-24T10:00:19.010Z,9.70
2022-10-24T10:02:45.848Z,9.95
2022-10-24T10:05:12.248Z,8.75
2022-10-24T10:07:38.522Z,9.10
2022-10-24T10:10:04.954Z,8.20
2022-10-24T10:12:31.301Z,9.82
2022-10-24T10:14:57.738Z,10.85
2022-10-24T10:17:24.672Z,9.70
2022-10-24T10:19:51.049Z,9.13
2022-10-24T10:22:24.801Z,9.05
2022-10-24T10:24:51.119Z,10.13
2022-10-24T10:27:17.504Z,8.73
2022-10-24T10:29:43.974Z,9.70
2022-10-24T10:32:10.408Z,7.72
2022-10-24T10:34:36.807Z,8.25
2022-10-24T10:37:03.152Z,8.40
2022-10-24T10:39:29.496Z,9.18
2022-10-24T10:44:27.218Z,9.18
2022-10-24T10:46:53.615Z,8.00
2022-10-24T10:49:19.944Z,10.48
2022-10-24T10:51:46.377Z,10.27
2022-10-24T10:54:12.675Z,10.90
2022-10-24T10:56:39.291Z,11.73
2022-10-24T10:59:06.637Z,8.50
2022-10-24T11:01:33.433Z,9.68
2022-10-24T11:04:00.038Z,8.95
2022-10-24T11:06:26.380Z,9.00
2022-10-24T11:08:52.794Z,9.63
2022-10-24T11:11:19.181Z,10.23
2022-10-24T11:13:46.215Z,8.68
2022-10-24T11:16:12.470Z,8.68
2022-10-24T11:18:38.936Z,8.05
2022-10-24T11:21:05.392Z,8.52
2022-10-24T11:28:46.145Z,10.43
2022-10-24T11:31:12.494Z,7.32
2022-10-24T11:33:38.754Z,8.32
2022-10-24T11:36:05.093Z,8.77
2022-10-24T11:38:31.498Z,8.52
2022-10-24T11:40:58.913Z,8.57
2022-10-24T11:43:27.285Z,70.70
2022-10-24T11:45:53.888Z,463.05
2022-10-24T11:48:20.192Z,364.23
2022-10-24T11:50:46.576Z,240.85
2022-10-24T11:53:13.023Z,200.48
2022-10-24T11:55:40.212Z,200.88
2022-10-24T11:58:07.353Z,186.65
2022-10-24T12:00:33.780Z,185.70
2022-10-24T12:05:29.265Z,172.88
2022-10-24T12:07:55.537Z,173.90
2022-10-24T12:10:23.297Z,166.38
2022-10-24T12:12:49.758Z,168.02
2022-10-24T12:15:16.281Z,165.55
2022-10-24T12:17:43.008Z,170.68
2022-10-24T12:20:09.732Z,162.70
2022-10-24T12:22:35.999Z,161.23
2022-10-24T12:27:38.165Z,159.13
2022-10-24T12:30:04.577Z,154.32
2022-10-24T12:32:30.839Z,157.60
2022-10-24T12:35:12.312Z,150.52
2022-10-24T12:37:46.830Z,148.43
2022-10-24T12:42:40.256Z,140.15
2022-10-24T12:45:07.260Z,140.50
2022-10-24T12:47:33.749Z,139.73
2022-10-24T12:50:00.007Z,140.70
2022-10-24T12:52:26.456Z,137.80
2022-10-24T12:54:52.705Z,133.63
2022-10-24T12:57:19.021Z,132.75
2022-10-24T12:59:45.374Z,128.63
2022-10-24T13:02:12.023Z,125.75
2022-10-24T13:04:38.505Z,129.85
2022-10-24T13:07:04.862Z,124.97
2022-10-24T13:09:32.157Z,127.45
2022-10-24T13:11:58.455Z,122.30
2022-10-24T13:14:24.766Z,125.75
2022-10-24T13:16:51.066Z,124.57
2022-10-24T13:19:17.675Z,120.65
2022-10-24T13:21:46.360Z,122.10
2022-10-24T13:24:13.288Z,118.20
2022-10-24T13:26:39.579Z,114.68
2022-10-24T13:29:06.029Z,116.63
2022-10-24T13:31:32.426Z,117.38
2022-10-24T13:33:58.729Z,115.25
2022-10-24T13:36:28.404Z,119.50
2022-10-24T13:38:55.025Z,112.70
2022-10-24T13:41:21.688Z,109.95
2022-10-24T13:43:48.030Z,109.47
2022-10-24T13:46:14.428Z,108.03
2022-10-24T13:48:40.847Z,106.43
2022-10-24T13:51:07.153Z,106.63
2022-10-24T13:53:33.596Z,104.50
2022-10-24T13:55:59.798Z,103.13
2022-10-24T13:58:26.088Z,104.18
2022-10-24T14:00:52.345Z,100.57
2022-10-24T14:03:18.695Z,103.35
2022-10-24T14:05:45.265Z,95.63
2022-10-24T14:08:11.678Z,98.55
2022-10-24T14:10:37.958Z,95.25
2022-10-24T14:13:04.273Z,94.88
2022-10-24T14:15:30.853Z,94.22
2022-10-24T14:17:57.117Z,90.43
2022-10-24T14:20:23.393Z,87.10
2022-10-24T14:22:49.806Z,89.35
2022-10-24T14:25:18.697Z,88.07
2022-10-24T14:27:47.315Z,85.43
2022-10-24T14:30:13.925Z,89.55
2022-10-24T14:35:09.458Z,84.43
2022-10-24T14:37:35.746Z,78.97
2022-10-24T14:40:02.129Z,108.82
2022-10-24T14:42:28.634Z,229.20
2022-10-24T14:44:58.175Z,188.65
2022-10-24T14:47:24.782Z,156.40
2022-10-24T14:49:51.300Z,149.40
2022-10-24T14:52:17.602Z,145.98
2022-10-24T14:54:44.004Z,134.05
2022-10-24T14:57:12.882Z,369.45
2022-10-24T14:59:39.908Z,486.15
2022-10-24T15:02:06.287Z,586.50
2022-10-24T15:04:32.552Z,459.30
2022-10-24T15:06:58.812Z,370.33
2022-10-24T15:09:25.124Z,338.65
2022-10-24T15:11:51.444Z,325.95
2022-10-24T15:14:17.716Z,321.75
2022-10-24T15:16:44.071Z,312.42
2022-10-24T15:19:10.454Z,297.70
2022-10-24T15:21:36.744Z,281.60
2022-10-24T15:24:03.252Z,286.00
2022-10-24T15:26:29.509Z,280.27
2022-10-24T15:28:55.846Z,274.52
2022-10-24T15:31:22.501Z,395.48
2022-10-24T15:33:48.819Z,459.30
2022-10-24T15:36:15.210Z,420.70
2022-10-24T15:38:41.592Z,415.70
2022-10-24T15:41:07.924Z,406.42
2022-10-24T15:43:34.196Z,394.55
2022-10-24T15:46:00.471Z,394.58
2022-10-24T15:48:26.829Z,395.00
2022-10-24T15:50:53.103Z,398.60
2022-10-24T15:53:19.657Z,519.20
2022-10-24T15:55:46.081Z,525.22
2022-10-24T15:58:12.408Z,507.58
2022-10-24T16:00:38.713Z,467.38
2022-10-24T16:03:05.381Z,473.05
2022-10-24T16:05:31.684Z,467.48
2022-10-24T16:07:58.081Z,462.38
2022-10-24T16:10:24.828Z,459.85
2022-10-24T16:12:51.141Z,447.88
2022-10-24T16:15:17.964Z,435.95
2022-10-24T16:17:44.451Z,443.52
2022-10-24T16:20:10.941Z,565.67
2022-10-24T16:22:37.695Z,599.17
2022-10-24T16:25:03.995Z,583.00
2022-10-24T16:27:30.284Z,555.25
2022-10-24T16:29:56.650Z,550.90
2022-10-24T16:32:22.965Z,535.58
2022-10-24T16:34:49.295Z,534.05
2022-10-24T16:37:15.555Z,520.45
2022-10-24T16:39:42.106Z,519.67
2022-10-24T16:42:09.485Z,505.10
2022-10-24T16:44:35.901Z,498.60
2022-10-24T16:47:02.228Z,494.67
2022-10-24T16:49:28.709Z,494.77
2022-10-24T16:51:55.061Z,534.97
2022-10-24T16:54:21.533Z,555.97
2022-10-24T16:56:52.537Z,592.88
2022-10-24T16:59:20.014Z,575.35
2022-10-24T17:01:46.485Z,563.95
2022-10-24T17:04:13.181Z,554.72
2022-10-24T17:06:39.643Z,543.42
2022-10-24T17:09:05.939Z,527.33
2022-10-24T17:11:44.761Z,525.70
2022-10-24T17:14:12.214Z,526.33
2022-10-24T17:16:38.479Z,594.92
2022-10-24T17:19:15.774Z,614.15
2022-10-24T17:21:43.251Z,619.17
2022-10-24T17:24:09.504Z,594.45
2022-10-24T17:26:35.836Z,597.20
2022-10-24T17:29:02.197Z,581.55
2022-10-24T17:31:28.434Z,570.42
2022-10-24T17:33:54.714Z,562.20
2022-10-24T17:36:21.452Z,552.90
2022-10-24T17:38:47.893Z,555.03
2022-10-24T17:41:14.147Z,615.47
2022-10-24T17:43:40.532Z,696.67
2022-10-24T17:46:06.770Z,661.35
2022-10-24T17:48:33.075Z,617.58
2022-10-24T17:50:59.413Z,547.55
2022-10-24T17:53:25.885Z,558.30
2022-10-24T17:55:52.177Z,515.67
2022-10-24T17:58:18.409Z,495.42
2022-10-24T18:00:45.514Z,443.08
2022-10-24T18:03:12.011Z,429.75
2022-10-24T18:05:38.887Z,402.20
2022-10-24T18:08:05.570Z,390.75
2022-10-24T18:10:34.714Z,370.77
2022-10-24T18:13:01.192Z,357.52
2022-10-24T18:15:27.482Z,348.60
2022-10-24T18:17:53.885Z,339.88
2022-10-24T18:20:20.299Z,332.38
2022-10-24T18:22:46.789Z,368.98
2022-10-24T18:25:13.203Z,399.88
2022-10-24T18:27:39.603Z,413.80
2022-10-24T18:30:06.012Z,418.60
2022-10-24T18:32:32.398Z,408.45
2022-10-24T18:34:58.793Z,400.30
2022-10-24T18:37:25.063Z,401.00
2022-10-24T18:39:51.367Z,388.08
2022-10-24T18:42:17.594Z,376.30
2022-10-24T18:44:46.463Z,376.95
2022-10-24T18:47:18.763Z,369.70
2022-10-24T18:49:47.423Z,424.35
2022-10-24T18:52:13.769Z,486.52
2022-10-24T18:54:40.206Z,496.02
2022-10-24T18:57:06.515Z,479.92
2022-10-24T18:59:32.877Z,475.48
2022-10-24T19:01:59.479Z,453.88
2022-10-24T19:04:26.066Z,454.63
2022-10-24T19:06:52.390Z,432.25
2022-10-24T19:09:18.920Z,430.40
2022-10-24T19:11:45.248Z,427.25
2022-10-24T19:14:11.481Z,422.45
2022-10-24T19:16:37.895Z,455.80
2022-10-24T19:19:04.472Z,512.03
2022-10-24T19:21:30.828Z,518.60
2022-10-24T19:23:57.079Z,500.70
2022-10-24T19:26:23.419Z,480.48
2022-10-24T19:28:49.723Z,472.60
2022-10-24T19:31:16.011Z,463.70
2022-10-24T19:33:42.544Z,462.23
2022-10-24T19:36:09.359Z,452.25
2022-10-24T19:38:35.847Z,469.02
2022-10-24T19:41:02.253Z,521.67
2022-10-24T19:43:28.924Z,574.10
2022-10-24T19:46:07.621Z,539.92
2022-10-24T19:48:34.723Z,520.83
2022-10-24T19:51:01.303Z,511.08
2022-10-24T19:53:27.568Z,501.42
2022-10-24T19:55:54.265Z,570.85
2022-10-24T19:58:20.636Z,646.28
2022-10-24T20:00:47.043Z,607.33
2022-10-24T20:03:13.402Z,597.92
2022-10-24T20:05:40.018Z,590.78
2022-10-24T20:08:06.377Z,583.05
2022-10-24T20:10:32.746Z,573.90
2022-10-24T20:12:59.076Z,563.95
2022-10-24T20:15:25.793Z,566.90
2022-10-24T20:17:52.339Z,561.15
2022-10-24T20:20:18.641Z,542.53
2022-10-24T20:22:45.304Z,540.75
2022-10-24T20:25:11.779Z,543.28
2022-10-24T20:27:38.128Z,529.67
2022-10-24T20:30:04.466Z,524.75
2022-10-24T20:32:30.729Z,533.55
2022-10-24T20:34:57.035Z,541.33
2022-10-24T20:37:23.560Z,528.38
2022-10-24T20:39:49.984Z,515.15
2022-10-24T20:42:16.282Z,507.73
2022-10-24T20:44:42.637Z,490.85
2022-10-24T20:47:08.913Z,632.08
2022-10-24T20:49:35.308Z,729.35
2022-10-24T20:52:01.940Z,816.17
2022-10-24T20:54:28.388Z,728.08
2022-10-24T20:56:54.924Z,650.38
2022-10-24T20:59:21.430Z,613.53
2022-10-24T21:01:47.858Z,600.55
2022-10-24T21:04:17.024Z,587.90
2022-10-24T21:06:46.242Z,577.83
2022-10-24T21:09:12.522Z,765.13
2022-10-24T21:11:38.830Z,828.00
2022-10-24T21:14:05.130Z,758.13
2022-10-24T21:16:31.638Z,700.85
2022-10-24T21:18:57.903Z,687.83
2022-10-24T21:21:24.249Z,823.63
2022-10-24T21:23:50.456Z,882.30
2022-10-24T21:26:17.007Z,832.15
2022-10-24T21:28:43.448Z,788.33
2022-10-24T21:31:09.736Z,765.75
2022-10-24T21:33:36.014Z,746.88
2022-10-24T21:36:02.317Z,738.35
2022-10-24T21:38:28.615Z,726.15
2022-10-24T21:40:54.923Z,715.00
2022-10-24T21:43:21.202Z,710.70
2022-10-24T21:45:47.574Z,703.60
2022-10-24T21:48:15.877Z,696.25
2022-10-24T21:50:42.500Z,691.83
2022-10-24T21:53:08.796Z,685.80
2022-10-24T21:55:35.108Z,682.22
2022-10-24T21:58:01.613Z,675.80
2022-10-24T22:00:27.921Z,673.80
2022-10-24T22:02:54.274Z,667.95
2022-10-24T22:05:20.634Z,661.40
2022-10-24T22:07:49.527Z,654.42
2022-10-24T22:10:16.158Z,652.83
2022-10-24T22:12:42.418Z,657.33
2022-10-24T22:15:08.716Z,654.53
2022-10-24T22:17:35.017Z,649.20
2022-10-24T22:20:01.261Z,654.53
2022-10-24T22:22:27.563Z,644.72
2022-10-24T22:24:54.010Z,637.70
2022-10-24T22:27:20.333Z,643.08
2022-10-24T22:29:47.024Z,634.50
2022-10-24T22:32:13.627Z,630.50
2022-10-24T22:34:40.021Z,630.60
2022-10-24T22:37:06.330Z,626.88
2022-10-24T22:39:32.800Z,628.42
2022-10-24T22:41:59.258Z,621.55
2022-10-24T22:44:25.641Z,617.30
2022-10-24T22:46:51.924Z,620.83
2022-10-24T22:49:18.221Z,613.22
2022-10-24T22:51:44.619Z,604.00
2022-10-24T22:54:10.889Z,603.67
2022-10-24T22:56:37.172Z,605.85
2022-10-24T22:59:03.761Z,599.88
2022-10-24T23:01:30.437Z,593.00
2022-10-24T23:03:56.967Z,592.00
2022-10-24T23:06:23.378Z,584.00
2022-10-24T23:08:49.652Z,584.10
2022-10-24T23:11:15.945Z,584.22
2022-10-24T23:13:42.259Z,577.67
2022-10-24T23:16:08.493Z,577.95
2022-10-24T23:18:34.761Z,574.05
2022-10-24T23:21:01.026Z,573.63
2022-10-24T23:23:29.538Z,561.22
2022-10-24T23:25:56.117Z,565.03
2022-10-24T23:28:22.448Z,556.17
2022-10-24T23:30:48.802Z,554.85
2022-10-24T23:33:15.101Z,553.67
2022-10-24T23:35:41.400Z,561.50
2022-10-24T23:38:08.184Z,552.28
2022-10-24T23:40:34.604Z,546.55
2022-10-24T23:43:01.015Z,554.40
2022-10-24T23:45:27.288Z,548.20
2022-10-24T23:47:53.582Z,539.05
2022-10-24T23:50:19.954Z,539.83
2022-10-24T23:52:46.678Z,535.67
2022-10-24T23:55:13.321Z,536.78
2022-10-24T23:57:39.787Z,525.33
